Panama City, Florida
Current Conditions -  °F | °C
As of 3:58 PM on Friday 24 Oct 2014 (Local Time) from KPAM Reporting Station
Clear Clear  
Wind Chill: 73°   Ceiling: Unl
Heat Index: 73°   Visibility: 10mi
Dew Point: 51°   Wind: 12mph
Humidity: 45%   Direction: 260°W
Pressure: 29.98"   Gusts: NA
Location:  30.16°N, 85.66°W
Report Text: KPAM 242058Z AUTO 26010KT 10SM CLR 23/11 A2998 RMK AO2 SLP155 T02300106 55012 $
Loading
Personal Weather Stations






























Interactive Weather Map New forecast layout! Learn more

10-Day Weather Forecast

Advertisements
Track Severe Weather on mobile